createdAt,value
2018-06-10T00:00:47.902Z,20.20
2018-06-10T00:03:16.249Z,19.63
2018-06-10T00:05:44.649Z,21.03
2018-06-10T00:08:13.010Z,21.13
2018-06-10T00:10:41.369Z,21.40
2018-06-10T00:13:10.318Z,22.40
2018-06-10T00:15:38.683Z,23.70
2018-06-10T00:18:07.038Z,24.20
2018-06-10T00:20:35.450Z,25.57
2018-06-10T00:23:03.826Z,23.47
2018-06-10T00:25:32.191Z,22.70
2018-06-10T00:28:00.674Z,21.63
2018-06-10T00:30:29.041Z,22.53
2018-06-10T00:32:57.429Z,20.17
2018-06-10T00:35:25.786Z,22.37
2018-06-10T00:37:54.133Z,22.30
2018-06-10T00:40:22.709Z,21.57
2018-06-10T00:42:51.072Z,23.33
2018-06-10T00:45:19.437Z,22.33
2018-06-10T00:47:47.839Z,23.07
2018-06-10T00:50:16.212Z,23.23
2018-06-10T00:52:44.563Z,23.07
2018-06-10T00:55:12.953Z,22.70
2018-06-10T00:57:41.333Z,22.90
2018-06-10T01:00:09.730Z,22.53
2018-06-10T01:02:38.133Z,21.20
2018-06-10T01:05:06.541Z,22.87
2018-06-10T01:07:34.929Z,22.33
2018-06-10T01:10:03.322Z,22.47
2018-06-10T01:12:31.715Z,22.60
2018-06-10T01:15:00.088Z,22.97
2018-06-10T01:17:28.441Z,22.10
2018-06-10T01:19:56.874Z,25.87
2018-06-10T01:22:25.249Z,22.93
2018-06-10T01:24:53.598Z,22.17
2018-06-10T01:27:22.012Z,22.63
2018-06-10T01:29:50.360Z,22.67
2018-06-10T01:32:18.729Z,22.37
2018-06-10T01:34:47.234Z,21.00
2018-06-10T01:37:15.567Z,20.27
2018-06-10T01:39:43.923Z,20.90
2018-06-10T01:42:12.290Z,23.33
2018-06-10T01:44:40.634Z,18.57
2018-06-10T01:47:08.995Z,21.13
2018-06-10T01:49:37.344Z,19.70
2018-06-10T01:52:05.695Z,20.20
2018-06-10T01:54:34.346Z,19.83
2018-06-10T01:57:02.706Z,19.80
2018-06-10T01:59:31.059Z,20.20
2018-06-10T02:01:59.594Z,19.93
2018-06-10T02:04:27.943Z,19.60
2018-06-10T02:06:56.275Z,19.57
2018-06-10T02:09:24.777Z,19.20
2018-06-10T02:11:53.128Z,19.97
2018-06-10T02:14:21.497Z,21.23
2018-06-10T02:16:50.012Z,19.67
2018-06-10T02:19:18.354Z,19.93
2018-06-10T02:21:46.703Z,21.07
2018-06-10T02:24:15.247Z,21.10
2018-06-10T02:26:43.591Z,20.00
2018-06-10T02:29:11.956Z,19.90
2018-06-10T02:31:40.525Z,20.70
2018-06-10T02:34:08.867Z,20.70
2018-06-10T02:36:37.219Z,21.30
2018-06-10T02:39:07.362Z,20.33
2018-06-10T02:41:35.706Z,20.93
2018-06-10T02:44:04.051Z,19.10
2018-06-10T02:46:32.428Z,21.40
2018-06-10T02:49:00.768Z,20.43
2018-06-10T02:51:29.085Z,21.27
2018-06-10T02:53:57.555Z,21.50
2018-06-10T02:56:25.883Z,21.47
2018-06-10T02:58:54.218Z,22.00
2018-06-10T03:01:22.567Z,22.97
2018-06-10T03:03:50.886Z,21.27
2018-06-10T03:06:19.231Z,22.80
2018-06-10T03:08:47.556Z,22.10
2018-06-10T03:11:15.897Z,24.10
2018-06-10T03:13:44.225Z,24.93
2018-06-10T03:16:12.558Z,25.87
2018-06-10T03:18:40.898Z,25.67
2018-06-10T03:21:09.235Z,26.77
2018-06-10T03:23:37.764Z,27.03
2018-06-10T03:26:05.806Z,26.17
2018-06-10T03:28:34.126Z,28.83
2018-06-10T03:31:02.546Z,26.50
2018-06-10T03:33:30.866Z,28.97
2018-06-10T03:35:59.211Z,29.27
2018-06-10T03:38:27.535Z,29.00
2018-06-10T03:40:55.871Z,30.90
2018-06-10T03:43:24.219Z,30.30
2018-06-10T03:45:52.563Z,32.90
2018-06-10T03:48:20.915Z,32.30
2018-06-10T03:50:49.452Z,34.17
2018-06-10T03:53:17.772Z,38.83
2018-06-10T03:55:46.087Z,35.63
2018-06-10T03:58:14.440Z,35.83
2018-06-10T04:00:42.767Z,34.10
2018-06-10T04:03:11.079Z,37.00
2018-06-10T04:05:39.426Z,36.50
2018-06-10T04:08:07.755Z,38.70
2018-06-10T04:10:36.071Z,37.40
2018-06-10T04:13:04.138Z,35.63
2018-06-10T04:15:32.469Z,36.33
2018-06-10T04:18:00.804Z,38.10
2018-06-10T04:20:29.287Z,37.10
2018-06-10T04:22:57.611Z,37.83
2018-06-10T04:25:25.936Z,37.57
2018-06-10T04:27:54.272Z,33.93
2018-06-10T04:30:22.583Z,36.80
2018-06-10T04:32:50.900Z,35.17
2018-06-10T04:35:19.386Z,35.17
2018-06-10T04:37:47.708Z,33.33
2018-06-10T04:40:16.035Z,34.30
2018-06-10T04:42:44.374Z,34.60
2018-06-10T04:45:12.706Z,34.53
2018-06-10T04:47:41.330Z,33.67
2018-06-10T04:50:09.743Z,35.13
2018-06-10T04:52:38.078Z,33.13
2018-06-10T04:55:06.588Z,34.07
2018-06-10T04:57:34.939Z,34.60
2018-06-10T05:00:03.324Z,34.13
2018-06-10T05:02:31.841Z,34.13
2018-06-10T05:05:00.192Z,36.17
2018-06-10T05:07:28.573Z,35.53
2018-06-10T05:09:57.158Z,36.23
2018-06-10T05:12:25.517Z,35.80
2018-06-10T05:14:53.918Z,35.67
2018-06-10T05:17:22.475Z,34.27
2018-06-10T05:19:50.935Z,35.27
2018-06-10T05:22:19.234Z,35.30
2018-06-10T05:24:47.599Z,34.43
2018-06-10T05:27:16.011Z,34.50
2018-06-10T05:29:44.606Z,35.80
2018-06-10T05:32:12.959Z,35.30
2018-06-10T05:34:41.303Z,36.23
2018-06-10T05:37:09.667Z,36.20
2018-06-10T05:39:38.250Z,35.37
2018-06-10T05:42:06.591Z,34.83
2018-06-10T05:44:34.985Z,36.60
2018-06-10T05:47:03.601Z,36.70
2018-06-10T05:49:32.003Z,35.00
2018-06-10T05:52:00.344Z,36.00
2018-06-10T05:54:28.835Z,37.40
2018-06-10T05:56:57.183Z,34.07
2018-06-10T05:59:25.515Z,36.40
2018-06-10T06:01:53.855Z,34.30
2018-06-10T06:04:22.171Z,31.83
2018-06-10T06:06:50.515Z,34.40
2018-06-10T06:09:18.851Z,31.87
2018-06-10T06:11:47.175Z,31.73
2018-06-10T06:14:15.647Z,31.23
2018-06-10T06:16:43.977Z,30.37
2018-06-10T06:19:12.305Z,33.30
2018-06-10T06:21:40.788Z,30.40
2018-06-10T06:24:09.096Z,31.00
2018-06-10T06:26:37.145Z,29.13
2018-06-10T06:29:05.626Z,26.20
2018-06-10T06:31:33.946Z,25.97
2018-06-10T06:34:02.280Z,25.90
2018-06-10T06:36:30.638Z,28.00
2018-06-10T06:38:58.992Z,35.40
2018-06-10T06:41:27.315Z,33.47
2018-06-10T06:43:55.814Z,28.67
2018-06-10T06:46:24.156Z,27.00
2018-06-10T06:48:52.485Z,25.77
2018-06-10T06:51:20.903Z,25.50
2018-06-10T06:53:49.776Z,23.27
2018-06-10T06:56:18.167Z,25.60
2018-06-10T06:58:46.535Z,33.63
2018-06-10T07:01:14.887Z,40.70
2018-06-10T07:03:43.263Z,27.70
2018-06-10T07:06:11.615Z,26.30
2018-06-10T07:08:39.955Z,24.97
2018-06-10T07:11:08.440Z,24.63
2018-06-10T07:13:36.783Z,24.70
2018-06-10T07:16:05.123Z,25.97
2018-06-10T07:18:33.491Z,25.07
2018-06-10T07:21:01.543Z,25.33
2018-06-10T07:23:29.884Z,25.63
2018-06-10T07:25:58.393Z,27.27
2018-06-10T07:28:26.743Z,26.63
2018-06-10T07:30:55.079Z,26.00
2018-06-10T07:33:23.483Z,26.53
2018-06-10T07:35:51.842Z,38.33
2018-06-10T07:38:20.200Z,32.10
2018-06-10T07:40:48.583Z,33.53
2018-06-10T07:43:16.924Z,26.50
2018-06-10T07:45:45.438Z,32.97
2018-06-10T07:48:13.815Z,26.73
2018-06-10T07:50:42.150Z,27.43
2018-06-10T07:53:10.592Z,27.57
2018-06-10T07:55:38.942Z,25.57
2018-06-10T07:58:07.287Z,24.57
2018-06-10T08:00:35.639Z,23.23
2018-06-10T08:03:03.978Z,22.20
2018-06-10T08:05:32.312Z,22.90
2018-06-10T08:08:01.202Z,22.20
2018-06-10T08:10:29.560Z,21.83
2018-06-10T08:12:57.903Z,23.00
2018-06-10T08:15:26.247Z,21.97
2018-06-10T08:17:54.635Z,22.47
2018-06-10T08:20:22.962Z,22.13
2018-06-10T08:22:51.559Z,23.80
2018-06-10T08:25:19.883Z,22.07
2018-06-10T08:27:48.200Z,24.80
2018-06-10T08:30:16.535Z,25.23
2018-06-10T08:32:44.855Z,25.77
2018-06-10T08:35:13.419Z,25.50
2018-06-10T08:37:41.748Z,26.77
2018-06-10T08:40:10.055Z,25.80
2018-06-10T08:42:38.379Z,23.80
2018-06-10T08:45:06.692Z,24.07
2018-06-10T08:47:35.028Z,24.63
2018-06-10T08:50:03.391Z,19.60
2018-06-10T08:52:31.743Z,22.37
2018-06-10T08:54:59.822Z,21.67
2018-06-10T08:57:28.160Z,20.33
2018-06-10T08:59:56.500Z,22.00
2018-06-10T09:02:24.857Z,22.60
2018-06-10T09:04:53.216Z,20.67
2018-06-10T09:07:21.572Z,26.20
2018-06-10T09:09:50.175Z,24.10
2018-06-10T09:12:18.519Z,22.67
2018-06-10T09:14:46.890Z,23.10
2018-06-10T09:17:15.379Z,24.20
2018-06-10T09:19:43.703Z,20.33
2018-06-10T09:22:12.065Z,23.37
2018-06-10T09:24:40.415Z,27.90
2018-06-10T09:27:08.919Z,24.73
2018-06-10T09:29:37.522Z,23.40
2018-06-10T09:32:05.911Z,22.87
2018-06-10T09:34:34.268Z,21.68
2018-06-10T09:37:02.611Z,22.85
2018-06-10T09:39:30.998Z,22.82
2018-06-10T09:41:59.339Z,22.27
2018-06-10T09:44:27.747Z,23.67
2018-06-10T09:46:56.116Z,22.57
2018-06-10T09:49:24.491Z,20.60
2018-06-10T09:51:52.883Z,20.73
2018-06-10T09:54:21.250Z,22.90
2018-06-10T09:56:49.695Z,22.10
2018-06-10T09:59:18.012Z,23.73
2018-06-10T10:01:46.379Z,22.30
2018-06-10T10:04:14.727Z,19.37
2018-06-10T10:06:43.096Z,21.97
2018-06-10T10:09:11.458Z,39.10
2018-06-10T10:11:39.538Z,24.70
2018-06-10T10:14:07.903Z,24.60
2018-06-10T10:16:36.245Z,22.73
2018-06-10T10:19:04.604Z,21.63
2018-06-10T10:21:33.178Z,19.40
2018-06-10T10:24:01.527Z,20.90
2018-06-10T10:26:29.883Z,23.83
2018-06-10T10:28:58.399Z,21.63
2018-06-10T10:31:26.775Z,21.80
2018-06-10T10:33:55.128Z,19.30
2018-06-10T10:36:23.654Z,18.97
2018-06-10T10:38:51.999Z,19.73
2018-06-10T10:41:20.346Z,20.70
2018-06-10T10:43:49.680Z,18.00
2018-06-10T10:46:18.897Z,18.70
2018-06-10T10:48:47.722Z,18.20
2018-06-10T10:51:16.122Z,20.50
2018-06-10T10:53:44.491Z,20.30
2018-06-10T10:56:12.831Z,18.60
2018-06-10T10:58:41.211Z,20.20
2018-06-10T11:01:09.535Z,19.77
2018-06-10T11:03:37.589Z,25.10
2018-06-10T11:06:05.971Z,19.33
2018-06-10T11:08:34.434Z,17.30
2018-06-10T11:11:02.809Z,18.20
2018-06-10T11:13:31.171Z,18.57
2018-06-10T11:15:59.217Z,18.17
2018-06-10T11:18:27.579Z,18.83
2018-06-10T11:20:56.093Z,19.20
2018-06-10T11:23:24.434Z,20.33
2018-06-10T11:25:52.533Z,19.50
2018-06-10T11:28:20.923Z,20.30
2018-06-10T11:30:49.292Z,21.47
2018-06-10T11:33:17.655Z,19.37
2018-06-10T11:35:46.031Z,17.73
2018-06-10T11:38:14.367Z,16.23
2018-06-10T11:40:42.751Z,15.27
2018-06-10T11:43:11.095Z,16.60
2018-06-10T11:45:39.445Z,16.10
2018-06-10T11:48:08.034Z,16.60
2018-06-10T11:50:36.383Z,18.00
2018-06-10T11:53:04.744Z,18.30
2018-06-10T11:55:33.141Z,20.73
2018-06-10T11:58:01.627Z,27.00
2018-06-10T12:00:29.886Z,35.00
2018-06-10T12:02:58.469Z,20.20
2018-06-10T12:05:26.843Z,18.13
2018-06-10T12:07:55.207Z,17.00
2018-06-10T12:10:23.691Z,17.53
2018-06-10T12:12:52.055Z,19.03
2018-06-10T12:15:20.135Z,18.73
2018-06-10T12:17:48.651Z,17.23
2018-06-10T12:20:16.989Z,18.23
2018-06-10T12:22:45.375Z,18.17
2018-06-10T12:25:13.731Z,18.17
2018-06-10T12:27:42.075Z,17.40
2018-06-10T12:30:10.458Z,17.53
2018-06-10T12:32:38.943Z,16.80
2018-06-10T12:35:07.299Z,18.17
2018-06-10T12:37:35.668Z,16.60
2018-06-10T12:40:04.084Z,22.90
2018-06-10T12:42:32.469Z,17.03
2018-06-10T12:45:01.128Z,16.00
2018-06-10T12:47:29.652Z,16.23
2018-06-10T12:49:57.991Z,14.80
2018-06-10T12:52:26.400Z,14.00
2018-06-10T12:54:54.632Z,14.70
2018-06-10T12:57:22.994Z,13.90
2018-06-10T12:59:51.354Z,14.03
2018-06-10T13:02:19.767Z,13.90
2018-06-10T13:04:48.125Z,12.63
2018-06-10T13:07:16.514Z,13.13
2018-06-10T13:09:45.072Z,12.30
2018-06-10T13:12:13.392Z,13.27
2018-06-10T13:14:41.733Z,13.37
2018-06-10T13:17:10.241Z,13.77
2018-06-10T13:19:38.598Z,12.57
2018-06-10T13:22:06.934Z,13.60
2018-06-10T13:24:35.454Z,13.20
2018-06-10T13:27:03.910Z,13.90
2018-06-10T13:29:32.247Z,13.33
2018-06-10T13:32:00.839Z,13.17
2018-06-10T13:34:29.151Z,13.73
2018-06-10T13:36:57.478Z,14.00
2018-06-10T13:39:25.966Z,12.53
2018-06-10T13:41:54.314Z,13.90
2018-06-10T13:44:22.690Z,16.13
2018-06-10T13:46:51.159Z,17.37
2018-06-10T13:49:19.556Z,16.90
2018-06-10T13:51:47.920Z,15.63
2018-06-10T13:54:16.283Z,16.63
2018-06-10T13:56:44.664Z,15.83
2018-06-10T13:59:13.038Z,15.03
2018-06-10T14:01:41.535Z,15.00
2018-06-10T14:04:09.866Z,15.93
2018-06-10T14:06:38.244Z,15.87
2018-06-10T14:09:07.494Z,14.80
2018-06-10T14:11:35.857Z,16.00
2018-06-10T14:14:04.246Z,15.70
2018-06-10T14:16:32.647Z,15.37
2018-06-10T14:19:01.298Z,15.70
2018-06-10T14:21:29.647Z,15.00
2018-06-10T14:23:58.011Z,15.83
2018-06-10T14:26:26.349Z,15.80
2018-06-10T14:28:54.671Z,17.00
2018-06-10T14:31:23.010Z,15.87
2018-06-10T14:33:51.336Z,15.50
2018-06-10T14:36:19.695Z,15.07
2018-06-10T14:38:48.059Z,17.50
2018-06-10T14:41:16.408Z,15.40
2018-06-10T14:43:44.775Z,16.03
2018-06-10T14:46:13.268Z,14.83
2018-06-10T14:48:41.623Z,16.17
2018-06-10T14:51:10.051Z,13.40
2018-06-10T14:53:38.560Z,15.90
2018-06-10T14:56:06.926Z,13.60
2018-06-10T14:58:35.283Z,13.30
2018-06-10T15:01:03.662Z,14.33
2018-06-10T15:03:32.007Z,14.77
2018-06-10T15:06:00.384Z,13.77
2018-06-10T15:08:29.042Z,14.30
2018-06-10T15:10:57.374Z,13.33
2018-06-10T15:13:25.715Z,13.33
2018-06-10T15:15:54.043Z,15.37
2018-06-10T15:18:22.523Z,18.70
2018-06-10T15:20:50.981Z,15.10
2018-06-10T15:23:19.242Z,16.07
2018-06-10T15:25:47.735Z,14.97
2018-06-10T15:28:16.059Z,14.33
2018-06-10T15:30:44.367Z,14.53
2018-06-10T15:33:12.708Z,14.73
2018-06-10T15:35:41.052Z,15.77
2018-06-10T15:38:09.398Z,13.93
2018-06-10T15:40:37.803Z,12.90
2018-06-10T15:43:05.846Z,13.80
2018-06-10T15:45:34.321Z,14.67
2018-06-10T15:48:02.637Z,13.97
2018-06-10T15:50:30.976Z,13.50
2018-06-10T15:52:59.468Z,13.50
2018-06-10T15:55:27.803Z,14.17
2018-06-10T15:57:56.130Z,15.70
2018-06-10T16:00:24.488Z,15.17
2018-06-10T16:02:52.843Z,14.63
2018-06-10T16:05:21.210Z,16.57
2018-06-10T16:07:49.578Z,14.80
2018-06-10T16:10:18.087Z,13.10
2018-06-10T16:12:46.447Z,13.10
2018-06-10T16:15:14.959Z,13.87
2018-06-10T16:17:43.306Z,12.70
2018-06-10T16:20:11.646Z,12.70
2018-06-10T16:22:40.154Z,13.17
2018-06-10T16:25:08.615Z,12.13
2018-06-10T16:27:36.979Z,12.37
2018-06-10T16:30:05.975Z,14.10
2018-06-10T16:32:34.327Z,17.10
2018-06-10T16:35:02.676Z,12.07
2018-06-10T16:37:31.204Z,11.60
2018-06-10T16:39:59.551Z,11.43
2018-06-10T16:42:27.895Z,13.30
2018-06-10T16:44:56.399Z,13.03
2018-06-10T16:47:24.759Z,15.10
2018-06-10T16:49:53.107Z,12.67
2018-06-10T16:52:21.615Z,13.03
2018-06-10T16:54:49.991Z,10.80
2018-06-10T16:57:18.338Z,10.90
2018-06-10T16:59:46.849Z,10.97
2018-06-10T17:02:15.215Z,12.83
2018-06-10T17:04:43.587Z,13.37
2018-06-10T17:07:12.095Z,14.43
2018-06-10T17:09:40.436Z,11.63
2018-06-10T17:12:08.778Z,11.93
2018-06-10T17:14:37.299Z,11.53
2018-06-10T17:17:05.669Z,11.40
2018-06-10T17:19:34.018Z,11.10
2018-06-10T17:22:02.380Z,10.57
2018-06-10T17:24:30.782Z,10.93
2018-06-10T17:26:59.123Z,11.17
2018-06-10T17:29:27.451Z,12.77
2018-06-10T17:31:55.767Z,11.87
2018-06-10T17:34:24.095Z,11.63
2018-06-10T17:36:52.644Z,11.50
2018-06-10T17:39:20.974Z,11.13
2018-06-10T17:41:49.295Z,11.83
2018-06-10T17:44:17.798Z,11.20
2018-06-10T17:46:46.147Z,11.00
2018-06-10T17:49:14.460Z,10.97
2018-06-10T17:51:42.795Z,15.60
2018-06-10T17:54:11.120Z,16.63
2018-06-10T17:56:39.457Z,16.50
2018-06-10T17:59:07.865Z,13.90
2018-06-10T18:01:36.168Z,12.13
2018-06-10T18:04:04.605Z,11.50
2018-06-10T18:06:32.995Z,40.20
2018-06-10T18:09:01.356Z,16.57
2018-06-10T18:11:29.815Z,12.90
2018-06-10T18:13:58.213Z,11.87
2018-06-10T18:16:26.602Z,10.83
2018-06-10T18:18:54.964Z,10.77
2018-06-10T18:21:23.258Z,12.03
2018-06-10T18:23:51.691Z,11.20
2018-06-10T18:26:20.039Z,11.33
2018-06-10T18:28:48.545Z,10.90
2018-06-10T18:31:16.888Z,11.73
2018-06-10T18:33:45.239Z,12.90
2018-06-10T18:36:13.779Z,12.07
2018-06-10T18:38:42.146Z,12.43
2018-06-10T18:41:10.511Z,12.50
2018-06-10T18:43:39.091Z,18.90
2018-06-10T18:46:07.557Z,15.77
2018-06-10T18:48:36.040Z,15.33
2018-06-10T18:51:04.613Z,13.70
2018-06-10T18:53:33.233Z,11.67
2018-06-10T18:56:01.850Z,12.97
2018-06-10T18:58:30.474Z,12.17
2018-06-10T19:00:58.888Z,11.77
2018-06-10T19:03:27.247Z,13.20
2018-06-10T19:05:55.607Z,12.17
2018-06-10T19:08:24.013Z,12.47
2018-06-10T19:10:52.375Z,14.00
2018-06-10T19:13:20.724Z,14.17
2018-06-10T19:15:49.019Z,14.20
2018-06-10T19:18:17.491Z,14.00
2018-06-10T19:20:45.836Z,15.63
2018-06-10T19:23:14.143Z,15.20
2018-06-10T19:25:42.485Z,15.13
2018-06-10T19:28:11.659Z,15.50
2018-06-10T19:30:40.003Z,13.27
2018-06-10T19:33:08.492Z,16.10
2018-06-10T19:35:36.810Z,15.87
2018-06-10T19:38:05.163Z,15.13
2018-06-10T19:40:33.538Z,15.60
2018-06-10T19:43:02.008Z,14.43
2018-06-10T19:45:30.348Z,13.93
2018-06-10T19:47:58.730Z,13.70
2018-06-10T19:50:27.064Z,13.93
2018-06-10T19:52:55.395Z,13.53
2018-06-10T19:55:23.836Z,12.77
2018-06-10T19:57:52.203Z,14.53
2018-06-10T20:00:20.507Z,17.90
2018-06-10T20:02:48.911Z,49.40
2018-06-10T20:05:17.259Z,20.43
2018-06-10T20:07:45.603Z,14.30
2018-06-10T20:10:14.071Z,13.90
2018-06-10T20:12:42.372Z,14.27
2018-06-10T20:15:10.719Z,12.77
2018-06-10T20:17:39.198Z,13.63
2018-06-10T20:20:07.550Z,13.23
2018-06-10T20:22:35.840Z,13.53
2018-06-10T20:25:04.303Z,14.03
2018-06-10T20:27:32.674Z,13.43
2018-06-10T20:30:01.017Z,13.90
2018-06-10T20:32:29.347Z,12.67
2018-06-10T20:34:57.679Z,18.17
2018-06-10T20:37:26.027Z,26.00
2018-06-10T20:39:54.363Z,15.47
2018-06-10T20:42:22.684Z,13.57
2018-06-10T20:44:51.111Z,13.57
2018-06-10T20:47:19.794Z,12.60
2018-06-10T20:49:48.155Z,12.87
2018-06-10T20:52:16.464Z,12.93
2018-06-10T20:54:44.825Z,13.03
2018-06-10T20:57:13.137Z,13.00
2018-06-10T20:59:41.475Z,12.70
2018-06-10T21:02:09.783Z,13.70
2018-06-10T21:04:38.129Z,13.40
2018-06-10T21:07:06.482Z,12.93
2018-06-10T21:09:34.832Z,12.80
2018-06-10T21:12:03.155Z,13.10
2018-06-10T21:14:31.562Z,12.83
2018-06-10T21:16:59.870Z,13.27
2018-06-10T21:19:28.212Z,13.10
2018-06-10T21:21:56.526Z,12.30
2018-06-10T21:24:25.391Z,18.83
2018-06-10T21:26:53.722Z,17.47
2018-06-10T21:29:22.055Z,12.10
2018-06-10T21:31:50.378Z,11.57
2018-06-10T21:34:18.710Z,11.10
2018-06-10T21:36:47.026Z,10.43
2018-06-10T21:39:15.360Z,9.60
2018-06-10T21:41:43.677Z,9.53
2018-06-10T21:44:12.007Z,10.07
2018-06-10T21:46:40.319Z,9.90
2018-06-10T21:49:08.650Z,10.60
2018-06-10T21:51:36.964Z,9.73
2018-06-10T21:54:05.395Z,10.60
2018-06-10T21:56:33.675Z,10.70
2018-06-10T21:59:02.002Z,9.57
2018-06-10T22:01:30.100Z,10.07
2018-06-10T22:03:58.416Z,10.70
2018-06-10T22:06:26.739Z,11.60
2018-06-10T22:08:55.088Z,10.40
2018-06-10T22:11:23.431Z,10.50
2018-06-10T22:13:51.755Z,10.30
2018-06-10T22:16:20.099Z,11.30
2018-06-10T22:18:48.419Z,10.73
2018-06-10T22:21:16.754Z,11.60
2018-06-10T22:23:45.071Z,11.10
2018-06-10T22:26:13.434Z,11.63
2018-06-10T22:28:41.726Z,11.27
2018-06-10T22:31:10.069Z,10.50
2018-06-10T22:33:38.377Z,10.83
2018-06-10T22:36:06.724Z,11.07
2018-06-10T22:38:35.055Z,10.73
2018-06-10T22:41:03.399Z,10.80
2018-06-10T22:43:31.712Z,11.00
2018-06-10T22:46:00.062Z,11.40
2018-06-10T22:48:28.378Z,12.03
2018-06-10T22:50:56.698Z,12.10
2018-06-10T22:55:33.522Z,11.10
2018-06-10T22:58:01.860Z,11.17
2018-06-10T23:00:30.246Z,10.40
2018-06-10T23:02:58.579Z,11.60
2018-06-10T23:05:26.919Z,10.97
2018-06-10T23:07:55.280Z,10.90
2018-06-10T23:10:23.613Z,11.67
2018-06-10T23:12:51.947Z,11.63
2018-06-10T23:15:20.287Z,11.57
2018-06-10T23:17:48.606Z,11.57
2018-06-10T23:20:16.951Z,11.50
2018-06-10T23:22:45.275Z,11.77
2018-06-10T23:25:13.631Z,12.67
2018-06-10T23:27:41.959Z,11.80
2018-06-10T23:30:10.291Z,11.97
2018-06-10T23:32:38.612Z,12.43
2018-06-10T23:35:07.137Z,11.37
2018-06-10T23:37:35.460Z,11.70
2018-06-10T23:40:03.805Z,11.13
2018-06-10T23:42:31.859Z,12.10
2018-06-10T23:45:00.171Z,11.90
2018-06-10T23:47:28.511Z,12.70
2018-06-10T23:49:56.835Z,11.37
2018-06-10T23:52:25.187Z,13.20
2018-06-10T23:54:53.508Z,13.30
2018-06-10T23:57:21.846Z,13.00
2018-06-10T23:59:50.166Z,13.97
